sensor_id;sensor_type;location;lat;lon;timestamp;temperature;humidity
5828;DHT22;42583;50.240;8.444;2022-07-29T00:11:01;19.20;51.70
5828;DHT22;42583;50.240;8.444;2022-07-29T00:26:02;18.40;55.60
5828;DHT22;42583;50.240;8.444;2022-07-29T00:41:02;17.80;59.10
5828;DHT22;42583;50.240;8.444;2022-07-29T00:56:03;17.50;63.30
5828;DHT22;42583;50.240;8.444;2022-07-29T01:11:04;17.20;68.30
5828;DHT22;42583;50.240;8.444;2022-07-29T01:41:37;17.10;74.00
5828;DHT22;42583;50.240;8.444;2022-07-29T01:56:39;16.90;74.20
5828;DHT22;42583;50.240;8.444;2022-07-29T02:11:40;16.90;73.60
5828;DHT22;42583;50.240;8.444;2022-07-29T02:26:43;16.90;76.20
5828;DHT22;42583;50.240;8.444;2022-07-29T02:41:47;16.90;77.10
5828;DHT22;42583;50.240;8.444;2022-07-29T02:56:49;17.00;77.60
5828;DHT22;42583;50.240;8.444;2022-07-29T03:11:53;16.70;81.50
5828;DHT22;42583;50.240;8.444;2022-07-29T03:26:55;16.40;80.40
5828;DHT22;42583;50.240;8.444;2022-07-29T03:41:58;16.30;80.80
5828;DHT22;42583;50.240;8.444;2022-07-29T03:57:01;16.10;83.20
5828;DHT22;42583;50.240;8.444;2022-07-29T04:12:02;16.10;83.90
5828;DHT22;42583;50.240;8.444;2022-07-29T04:27:03;16.00;81.00
5828;DHT22;42583;50.240;8.444;2022-07-29T04:42:03;16.10;81.30
5828;DHT22;42583;50.240;8.444;2022-07-29T04:57:04;16.20;76.60
5828;DHT22;42583;50.240;8.444;2022-07-29T05:12:05;16.40;72.80
5828;DHT22;42583;50.240;8.444;2022-07-29T05:27:06;16.60;69.10
5828;DHT22;42583;50.240;8.444;2022-07-29T05:42:09;17.00;65.20
5828;DHT22;42583;50.240;8.444;2022-07-29T05:57:20;17.40;62.90
5828;DHT22;42583;50.240;8.444;2022-07-29T06:12:21;17.80;61.70
5828;DHT22;42583;50.240;8.444;2022-07-29T06:27:21;18.10;61.50
5828;DHT22;42583;50.240;8.444;2022-07-29T06:42:22;18.60;61.50
5828;DHT22;42583;50.240;8.444;2022-07-29T06:57:22;19.00;60.00
5828;DHT22;42583;50.240;8.444;2022-07-29T07:12:23;19.70;59.50
5828;DHT22;42583;50.240;8.444;2022-07-29T07:27:23;20.60;58.60
5828;DHT22;42583;50.240;8.444;2022-07-29T07:42:24;21.60;56.00
5828;DHT22;42583;50.240;8.444;2022-07-29T07:57:25;22.30;54.60
5828;DHT22;42583;50.240;8.444;2022-07-29T08:12:25;22.80;54.10
5828;DHT22;42583;50.240;8.444;2022-07-29T08:27:26;23.60;52.00
5828;DHT22;42583;50.240;8.444;2022-07-29T08:42:28;23.90;51.20
5828;DHT22;42583;50.240;8.444;2022-07-29T08:57:29;24.60;50.20
5828;DHT22;42583;50.240;8.444;2022-07-29T09:12:30;25.40;49.30
5828;DHT22;42583;50.240;8.444;2022-07-29T09:27:31;26.40;49.50
5828;DHT22;42583;50.240;8.444;2022-07-29T09:42:32;26.70;47.60
5828;DHT22;42583;50.240;8.444;2022-07-29T09:57:34;27.60;45.50
5828;DHT22;42583;50.240;8.444;2022-07-29T10:12:51;28.20;46.60
5828;DHT22;42583;50.240;8.444;2022-07-29T10:27:53;29.30;45.60
5828;DHT22;42583;50.240;8.444;2022-07-29T10:42:55;30.00;44.30
5828;DHT22;42583;50.240;8.444;2022-07-29T11:43:56;31.50;40.50
5828;DHT22;42583;50.240;8.444;2022-07-29T11:59:05;31.80;38.30
5828;DHT22;42583;50.240;8.444;2022-07-29T12:14:06;30.10;39.80
5828;DHT22;42583;50.240;8.444;2022-07-29T12:29:07;30.60;39.20
5828;DHT22;42583;50.240;8.444;2022-07-29T12:44:09;30.60;38.70
5828;DHT22;42583;50.240;8.444;2022-07-29T12:59:13;29.70;40.60
5828;DHT22;42583;50.240;8.444;2022-07-29T13:29:29;28.30;41.70
5828;DHT22;42583;50.240;8.444;2022-07-29T13:44:30;27.00;43.70
5828;DHT22;42583;50.240;8.444;2022-07-29T13:59:31;26.20;46.80
5828;DHT22;42583;50.240;8.444;2022-07-29T14:14:32;25.10;48.40
5828;DHT22;42583;50.240;8.444;2022-07-29T14:29:33;24.00;53.30
5828;DHT22;42583;50.240;8.444;2022-07-29T14:44:33;22.90;56.90
5828;DHT22;42583;50.240;8.444;2022-07-29T14:59:34;22.20;58.90
5828;DHT22;42583;50.240;8.444;2022-07-29T15:14:34;21.90;60.00
5828;DHT22;42583;50.240;8.444;2022-07-29T15:29:35;21.70;62.70
5828;DHT22;42583;50.240;8.444;2022-07-29T15:44:36;21.40;62.00
5828;DHT22;42583;50.240;8.444;2022-07-29T15:59:36;20.70;61.70
5828;DHT22;42583;50.240;8.444;2022-07-29T16:14:37;20.20;62.40
5828;DHT22;42583;50.240;8.444;2022-07-29T16:29:38;20.40;63.50
5828;DHT22;42583;50.240;8.444;2022-07-29T16:44:38;21.30;64.30
5828;DHT22;42583;50.240;8.444;2022-07-29T16:59:39;22.30;63.70
5828;DHT22;42583;50.240;8.444;2022-07-29T17:14:40;21.90;62.20
5828;DHT22;42583;50.240;8.444;2022-07-29T17:29:41;21.20;62.30
5828;DHT22;42583;50.240;8.444;2022-07-29T17:44:42;20.70;63.20
5828;DHT22;42583;50.240;8.444;2022-07-29T17:59:42;20.50;64.30
5828;DHT22;42583;50.240;8.444;2022-07-29T18:14:43;20.20;66.60
5828;DHT22;42583;50.240;8.444;2022-07-29T18:29:43;20.00;69.90
5828;DHT22;42583;50.240;8.444;2022-07-29T18:44:44;19.70;72.70
5828;DHT22;42583;50.240;8.444;2022-07-29T18:59:44;19.50;74.90
5828;DHT22;42583;50.240;8.444;2022-07-29T19:14:45;19.30;75.80
5828;DHT22;42583;50.240;8.444;2022-07-29T19:29:46;19.20;76.70
5828;DHT22;42583;50.240;8.444;2022-07-29T19:44:46;19.00;77.60
5828;DHT22;42583;50.240;8.444;2022-07-29T19:59:47;18.90;78.10
5828;DHT22;42583;50.240;8.444;2022-07-29T20:14:49;18.90;80.00
5828;DHT22;42583;50.240;8.444;2022-07-29T20:29:49;18.80;81.20
5828;DHT22;42583;50.240;8.444;2022-07-29T20:44:50;18.70;85.50
5828;DHT22;42583;50.240;8.444;2022-07-29T20:59:52;18.70;88.40
5828;DHT22;42583;50.240;8.444;2022-07-29T21:14:53;18.70;90.80
5828;DHT22;42583;50.240;8.444;2022-07-29T21:29:53;18.70;91.30
5828;DHT22;42583;50.240;8.444;2022-07-29T21:44:54;18.70;93.80
5828;DHT22;42583;50.240;8.444;2022-07-29T21:59:54;18.60;94.40
5828;DHT22;42583;50.240;8.444;2022-07-29T22:14:55;18.50;94.70
5828;DHT22;42583;50.240;8.444;2022-07-29T22:29:56;18.20;93.90
5828;DHT22;42583;50.240;8.444;2022-07-29T22:44:56;18.00;94.40
5828;DHT22;42583;50.240;8.444;2022-07-29T22:59:57;17.90;94.10
5828;DHT22;42583;50.240;8.444;2022-07-29T23:15:00;17.60;92.70
5828;DHT22;42583;50.240;8.444;2022-07-29T23:30:01;17.30;92.30
5828;DHT22;42583;50.240;8.444;2022-07-29T23:45:03;17.10;92.30
